createdAt,value
2016-11-30T00:00:19.014Z,0
2016-11-30T00:01:29.526Z,0
2016-11-30T00:02:40.249Z,0
2016-11-30T00:03:50.773Z,0
2016-11-30T00:05:01.802Z,0
2016-11-30T00:06:12.323Z,0
2016-11-30T00:07:37.380Z,0
2016-11-30T00:08:47.941Z,0
2016-11-30T00:09:58.465Z,0
2016-11-30T00:11:08.998Z,0
2016-11-30T00:12:19.528Z,0
2016-11-30T00:13:30.050Z,0
2016-11-30T00:14:40.576Z,0
2016-11-30T00:15:51.128Z,0
2016-11-30T00:17:01.651Z,0
2016-11-30T00:18:12.178Z,0
2016-11-30T00:19:37.232Z,0
2016-11-30T00:20:47.763Z,0
2016-11-30T00:21:58.318Z,0
2016-11-30T00:23:08.844Z,0
2016-11-30T00:24:19.368Z,0
2016-11-30T00:25:44.418Z,0
2016-11-30T00:26:54.939Z,0
2016-11-30T00:28:05.464Z,0
2016-11-30T00:29:16.119Z,0
2016-11-30T00:30:26.643Z,0
2016-11-30T00:31:37.167Z,0
2016-11-30T00:33:02.221Z,0
2016-11-30T00:34:12.643Z,0
2016-11-30T00:35:23.147Z,0
2016-11-30T00:36:33.552Z,0
2016-11-30T00:37:43.952Z,0
2016-11-30T00:38:54.364Z,0
2016-11-30T00:40:04.769Z,0
2016-11-30T00:41:15.376Z,0
2016-11-30T00:42:25.776Z,0
2016-11-30T00:43:36.187Z,0
2016-11-30T00:44:46.592Z,0
2016-11-30T00:45:57.001Z,0
2016-11-30T00:47:07.603Z,0
2016-11-30T00:48:18.011Z,0
2016-11-30T00:49:28.414Z,0
2016-11-30T00:50:39.311Z,0
2016-11-30T00:51:49.716Z,0
2016-11-30T00:53:00.122Z,0
2016-11-30T00:54:10.528Z,0
2016-11-30T00:55:20.941Z,0
2016-11-30T00:56:31.345Z,0
2016-11-30T00:57:41.748Z,0
2016-11-30T00:59:06.908Z,0
2016-11-30T01:00:17.309Z,0
2016-11-30T01:01:27.710Z,0
2016-11-30T01:02:38.112Z,0
2016-11-30T01:03:48.527Z,0
2016-11-30T01:04:58.933Z,0
2016-11-30T01:06:09.350Z,0
2016-11-30T01:07:19.758Z,0
2016-11-30T01:08:30.275Z,0
2016-11-30T01:09:40.901Z,0
2016-11-30T01:10:51.425Z,0
2016-11-30T01:12:01.948Z,0
2016-11-30T01:13:12.471Z,0
2016-11-30T01:14:22.999Z,0
2016-11-30T01:15:33.751Z,0
2016-11-30T01:16:44.283Z,0
2016-11-30T01:17:54.807Z,0
2016-11-30T01:19:05.337Z,0
2016-11-30T01:20:15.862Z,0
2016-11-30T01:21:26.484Z,0
2016-11-30T01:22:37.005Z,0
2016-11-30T01:23:47.536Z,0
2016-11-30T01:24:58.064Z,0
2016-11-30T01:26:08.590Z,0
2016-11-30T01:27:19.114Z,0
2016-11-30T01:28:29.638Z,0
2016-11-30T01:29:40.163Z,0
2016-11-30T01:32:15.737Z,0
2016-11-30T01:33:26.267Z,0
2016-11-30T01:34:36.790Z,0
2016-11-30T01:35:47.316Z,0
2016-11-30T01:36:57.835Z,0
2016-11-30T01:38:08.465Z,0
2016-11-30T01:39:33.537Z,0
2016-11-30T01:40:44.062Z,0
2016-11-30T01:41:54.582Z,0
2016-11-30T01:43:19.636Z,0
2016-11-30T01:44:30.166Z,0
2016-11-30T01:45:40.692Z,0
2016-11-30T01:46:51.215Z,0
2016-11-30T01:48:01.741Z,0
2016-11-30T01:49:12.465Z,0
2016-11-30T01:50:22.990Z,0
2016-11-30T01:51:33.517Z,0
2016-11-30T01:52:44.039Z,0
2016-11-30T01:53:54.563Z,0
2016-11-30T01:55:05.288Z,0
2016-11-30T01:56:15.811Z,0
2016-11-30T01:57:26.356Z,0
2016-11-30T01:58:36.884Z,0
2016-11-30T01:59:47.408Z,0
2016-11-30T02:00:57.929Z,0
2016-11-30T02:02:08.459Z,0
2016-11-30T02:03:19.478Z,0
2016-11-30T02:04:30.005Z,0
2016-11-30T02:05:40.530Z,0
2016-11-30T02:06:51.276Z,0
2016-11-30T02:08:01.796Z,0
2016-11-30T02:09:12.335Z,0
2016-11-30T02:10:22.863Z,0
2016-11-30T02:11:48.111Z,0
2016-11-30T02:13:13.162Z,0
2016-11-30T02:14:23.580Z,0
2016-11-30T02:15:33.989Z,0
2016-11-30T02:16:44.394Z,0
2016-11-30T02:17:54.806Z,0
2016-11-30T02:19:05.211Z,0
2016-11-30T02:20:16.102Z,0
2016-11-30T02:21:26.509Z,0
2016-11-30T02:22:36.916Z,0
2016-11-30T02:23:47.325Z,0
2016-11-30T02:24:57.730Z,0
2016-11-30T02:26:08.150Z,0
2016-11-30T02:28:43.508Z,0
2016-11-30T02:29:53.912Z,0
2016-11-30T02:31:04.324Z,0
2016-11-30T02:32:14.739Z,0
2016-11-30T02:33:25.143Z,0
2016-11-30T02:34:35.549Z,0
2016-11-30T02:35:45.952Z,0
2016-11-30T02:36:56.361Z,0
2016-11-30T02:38:07.245Z,0
2016-11-30T02:39:17.653Z,0
2016-11-30T02:40:28.289Z,0
2016-11-30T02:41:53.248Z,0
2016-11-30T02:43:03.662Z,0
2016-11-30T02:44:14.077Z,0
2016-11-30T02:45:24.476Z,0
2016-11-30T02:46:34.881Z,0
2016-11-30T02:47:45.290Z,0
2016-11-30T02:48:55.692Z,0
2016-11-30T02:50:06.103Z,0
2016-11-30T02:51:16.607Z,0
2016-11-30T02:52:27.012Z,0
2016-11-30T02:53:37.419Z,0
2016-11-30T02:54:47.827Z,0
2016-11-30T02:55:58.232Z,0
2016-11-30T02:57:08.636Z,0
2016-11-30T02:58:19.037Z,0
2016-11-30T02:59:29.466Z,0
2016-11-30T03:00:39.871Z,0
2016-11-30T03:01:50.281Z,0
2016-11-30T03:03:00.687Z,0
2016-11-30T03:04:11.128Z,0
2016-11-30T03:05:21.537Z,0
2016-11-30T03:06:31.941Z,0
2016-11-30T03:07:42.344Z,0
2016-11-30T03:08:52.956Z,0
2016-11-30T03:10:03.362Z,0
2016-11-30T03:11:13.768Z,0
2016-11-30T03:12:24.172Z,0
2016-11-30T03:13:34.585Z,0
2016-11-30T03:14:45.085Z,0
2016-11-30T03:15:55.487Z,0
2016-11-30T03:17:05.894Z,0
2016-11-30T03:18:16.300Z,0
2016-11-30T03:19:26.704Z,0
2016-11-30T03:20:37.214Z,0
2016-11-30T03:21:47.620Z,0
2016-11-30T03:22:58.023Z,0
2016-11-30T03:24:08.432Z,0
2016-11-30T03:25:18.843Z,0
2016-11-30T03:26:43.795Z,0
2016-11-30T03:27:54.200Z,0
2016-11-30T03:29:04.612Z,0
2016-11-30T03:30:15.042Z,0
2016-11-30T03:31:25.546Z,0
2016-11-30T03:32:35.952Z,0
2016-11-30T03:33:46.355Z,0
2016-11-30T03:34:56.759Z,0
2016-11-30T03:36:07.165Z,0
2016-11-30T03:37:17.596Z,0
2016-11-30T03:38:27.996Z,0
2016-11-30T03:39:38.404Z,0
2016-11-30T03:40:48.810Z,0
2016-11-30T03:41:59.210Z,0
2016-11-30T03:43:09.816Z,0
2016-11-30T03:44:20.220Z,0
2016-11-30T03:45:30.625Z,0
2016-11-30T03:46:41.032Z,0
2016-11-30T03:47:51.435Z,0
2016-11-30T03:49:01.873Z,0
2016-11-30T03:50:12.329Z,0
2016-11-30T03:51:22.765Z,0
2016-11-30T03:52:33.169Z,0
2016-11-30T03:55:08.733Z,0
2016-11-30T03:56:19.140Z,0
2016-11-30T03:57:44.126Z,0
2016-11-30T03:58:55.019Z,0
2016-11-30T04:00:05.523Z,0
2016-11-30T04:01:15.925Z,0
2016-11-30T04:02:40.876Z,0
2016-11-30T04:03:51.281Z,0
2016-11-30T04:06:26.643Z,0
2016-11-30T04:07:37.046Z,0
2016-11-30T04:08:47.479Z,0
2016-11-30T04:09:57.883Z,0
2016-11-30T04:11:08.319Z,0
2016-11-30T04:12:18.724Z,0
2016-11-30T04:13:29.128Z,0
2016-11-30T04:14:40.030Z,0
2016-11-30T04:15:50.433Z,0
2016-11-30T04:17:01.038Z,0
2016-11-30T04:18:11.443Z,0
2016-11-30T04:19:21.851Z,0
2016-11-30T04:20:32.252Z,0
2016-11-30T04:21:42.658Z,0
2016-11-30T04:23:07.612Z,0
2016-11-30T04:24:18.020Z,0
2016-11-30T04:25:28.425Z,0
2016-11-30T04:26:38.830Z,0
2016-11-30T04:27:49.235Z,0
2016-11-30T04:28:59.638Z,0
2016-11-30T04:30:10.044Z,0
2016-11-30T04:31:20.446Z,0
2016-11-30T04:32:30.858Z,0
2016-11-30T04:33:41.462Z,0
2016-11-30T04:34:51.871Z,0
2016-11-30T04:36:02.273Z,0
2016-11-30T04:37:12.680Z,0
2016-11-30T04:38:23.079Z,0
2016-11-30T04:39:33.684Z,0
2016-11-30T04:40:44.089Z,0
2016-11-30T04:41:54.494Z,0
2016-11-30T04:43:04.897Z,0
2016-11-30T04:44:15.300Z,0
2016-11-30T04:45:25.901Z,0
2016-11-30T04:46:36.303Z,0
2016-11-30T04:47:46.704Z,0
2016-11-30T04:48:57.112Z,0
2016-11-30T04:50:07.520Z,0
2016-11-30T04:51:17.924Z,0
2016-11-30T04:52:28.322Z,0
2016-11-30T04:53:38.724Z,0
2016-11-30T04:54:49.132Z,0
2016-11-30T04:55:59.539Z,0
2016-11-30T04:57:09.946Z,0
2016-11-30T04:58:20.354Z,0
2016-11-30T04:59:30.756Z,0
2016-11-30T05:00:41.158Z,0
2016-11-30T05:02:06.195Z,0
2016-11-30T05:03:16.717Z,0
2016-11-30T05:04:27.734Z,0
2016-11-30T05:05:38.754Z,0
2016-11-30T05:06:49.279Z,0
2016-11-30T05:08:00.012Z,0
2016-11-30T05:09:11.044Z,0
2016-11-30T05:10:21.567Z,0
2016-11-30T05:11:32.095Z,0
2016-11-30T05:12:42.643Z,0
2016-11-30T05:13:53.365Z,0
2016-11-30T05:15:03.888Z,0
2016-11-30T05:16:14.412Z,0
2016-11-30T05:17:39.474Z,0
2016-11-30T05:18:50.194Z,0
2016-11-30T05:20:00.715Z,0
2016-11-30T05:21:11.243Z,0
2016-11-30T05:22:21.767Z,0
2016-11-30T05:23:32.287Z,0
2016-11-30T05:24:42.805Z,0
2016-11-30T05:25:53.829Z,0
2016-11-30T05:27:04.351Z,0
2016-11-30T05:28:14.873Z,0
2016-11-30T05:29:25.394Z,0
2016-11-30T05:30:50.440Z,0
2016-11-30T05:32:00.967Z,0
2016-11-30T05:33:11.495Z,0
2016-11-30T05:34:37.039Z,0
2016-11-30T05:35:47.557Z,0
2016-11-30T05:36:58.078Z,0
2016-11-30T05:38:08.603Z,0
2016-11-30T05:39:19.128Z,0
2016-11-30T05:40:29.650Z,0
2016-11-30T05:41:40.374Z,0
2016-11-30T05:42:50.909Z,0
2016-11-30T05:44:01.433Z,0
2016-11-30T05:45:11.962Z,0
2016-11-30T05:46:22.483Z,0
2016-11-30T05:47:48.333Z,0
2016-11-30T05:48:58.855Z,0
2016-11-30T05:50:09.384Z,0
2016-11-30T05:51:19.908Z,0
2016-11-30T05:52:30.635Z,0
2016-11-30T05:53:41.155Z,0
2016-11-30T05:54:51.677Z,0
2016-11-30T05:56:02.199Z,0
2016-11-30T05:57:12.735Z,0
2016-11-30T05:58:23.259Z,0
2016-11-30T05:59:33.782Z,0
2016-11-30T06:00:44.300Z,0
2016-11-30T06:01:54.832Z,0
2016-11-30T06:03:05.355Z,0
2016-11-30T06:04:16.083Z,0
2016-11-30T06:05:26.605Z,0
2016-11-30T06:06:37.124Z,0
2016-11-30T06:07:47.672Z,0
2016-11-30T06:08:58.194Z,0
2016-11-30T06:10:08.917Z,0
2016-11-30T06:11:19.441Z,0
2016-11-30T06:12:29.963Z,0
2016-11-30T06:13:40.486Z,0
2016-11-30T06:14:51.011Z,0
2016-11-30T06:16:01.536Z,0
2016-11-30T06:17:12.064Z,0
2016-11-30T06:18:22.586Z,0
2016-11-30T06:19:33.110Z,0
2016-11-30T06:20:43.631Z,0
2016-11-30T06:22:08.878Z,0
2016-11-30T06:23:19.403Z,0
2016-11-30T06:24:29.927Z,0
2016-11-30T06:25:40.449Z,0
2016-11-30T06:26:51.170Z,0
2016-11-30T06:28:01.694Z,0
2016-11-30T06:29:12.218Z,0
2016-11-30T06:30:22.740Z,0
2016-11-30T06:31:33.264Z,0
2016-11-30T06:32:43.989Z,0
2016-11-30T06:33:54.519Z,0
2016-11-30T06:35:05.049Z,0
2016-11-30T06:36:15.573Z,0
2016-11-30T06:37:26.095Z,0
2016-11-30T06:38:36.861Z,0
2016-11-30T06:39:47.385Z,0
2016-11-30T06:40:57.906Z,0
2016-11-30T06:42:08.430Z,0
2016-11-30T06:43:18.953Z,0
2016-11-30T06:44:29.676Z,0
2016-11-30T06:45:40.198Z,0
2016-11-30T06:46:50.724Z,0
2016-11-30T06:48:01.250Z,0
2016-11-30T06:49:11.798Z,0
2016-11-30T06:50:22.532Z,0
2016-11-30T06:51:33.055Z,0
2016-11-30T06:52:43.580Z,0
2016-11-30T06:53:54.103Z,0
2016-11-30T06:55:04.631Z,0
2016-11-30T06:56:15.182Z,0
2016-11-30T06:57:25.703Z,0
2016-11-30T06:58:36.226Z,0
2016-11-30T06:59:46.749Z,0
2016-11-30T07:00:57.304Z,0
2016-11-30T07:02:07.828Z,0
2016-11-30T07:03:32.876Z,0
2016-11-30T07:04:43.397Z,0
2016-11-30T07:06:08.446Z,0
2016-11-30T07:07:18.968Z,0
2016-11-30T07:08:44.047Z,0
2016-11-30T07:10:09.093Z,0
2016-11-30T07:11:19.616Z,0
2016-11-30T07:12:30.338Z,0
2016-11-30T07:13:40.859Z,0
2016-11-30T07:14:51.380Z,0
2016-11-30T07:16:01.902Z,0
2016-11-30T07:17:12.425Z,0
2016-11-30T07:18:23.035Z,0
2016-11-30T07:19:33.440Z,0
2016-11-30T07:20:43.842Z,0
2016-11-30T07:21:54.736Z,0
2016-11-30T07:23:05.135Z,0
2016-11-30T07:24:15.736Z,0
2016-11-30T07:25:26.142Z,0
2016-11-30T07:26:36.573Z,0
2016-11-30T07:27:46.977Z,0
2016-11-30T07:28:57.378Z,0
2016-11-30T07:30:07.983Z,0
2016-11-30T07:31:18.383Z,0
2016-11-30T07:32:28.785Z,0
2016-11-30T07:33:39.192Z,0
2016-11-30T07:34:49.594Z,0
2016-11-30T07:36:00.000Z,0
2016-11-30T07:37:10.404Z,0
2016-11-30T07:38:20.816Z,0
2016-11-30T07:39:31.218Z,0
2016-11-30T07:40:41.617Z,0
2016-11-30T07:41:52.221Z,0
2016-11-30T07:43:02.624Z,0
2016-11-30T07:44:13.030Z,0
2016-11-30T07:45:23.432Z,0
2016-11-30T07:46:33.834Z,0
2016-11-30T07:47:44.444Z,0
2016-11-30T07:48:54.847Z,0
2016-11-30T07:50:05.248Z,0
2016-11-30T07:51:15.761Z,0
2016-11-30T07:52:26.285Z,0
2016-11-30T07:53:37.008Z,0
2016-11-30T07:54:47.531Z,0
2016-11-30T07:55:58.059Z,0
2016-11-30T07:57:08.583Z,0
2016-11-30T07:58:19.109Z,0
2016-11-30T07:59:29.635Z,0
2016-11-30T08:00:40.156Z,0
2016-11-30T08:01:50.686Z,0
2016-11-30T08:03:01.208Z,0
2016-11-30T08:04:11.735Z,0
2016-11-30T08:05:22.455Z,0
2016-11-30T08:06:32.975Z,0
2016-11-30T08:07:43.527Z,0
2016-11-30T08:08:54.052Z,0
2016-11-30T08:10:04.580Z,0
2016-11-30T08:11:15.123Z,0
2016-11-30T08:12:25.645Z,0
2016-11-30T08:13:36.165Z,0
2016-11-30T08:14:46.690Z,0
2016-11-30T08:15:57.211Z,0
2016-11-30T08:17:07.937Z,0
2016-11-30T08:18:32.989Z,0
2016-11-30T08:19:43.508Z,0
2016-11-30T08:20:54.033Z,0
2016-11-30T08:22:04.756Z,0
2016-11-30T08:23:15.296Z,0
2016-11-30T08:24:25.848Z,0
2016-11-30T08:25:36.371Z,0
2016-11-30T08:26:46.898Z,0
2016-11-30T08:27:57.624Z,0
2016-11-30T08:29:22.705Z,0
2016-11-30T08:30:33.228Z,0
2016-11-30T08:31:43.748Z,0
2016-11-30T08:32:54.469Z,0
2016-11-30T08:34:05.000Z,0
2016-11-30T08:35:15.521Z,0
2016-11-30T08:36:26.045Z,0
2016-11-30T08:37:36.569Z,0
2016-11-30T08:38:47.295Z,0
2016-11-30T08:39:57.815Z,0
2016-11-30T08:41:08.337Z,0
2016-11-30T08:42:18.861Z,0
2016-11-30T08:43:29.398Z,0
2016-11-30T08:44:39.926Z,0
2016-11-30T08:45:50.455Z,0
2016-11-30T08:47:00.980Z,0
2016-11-30T08:48:11.503Z,0
2016-11-30T08:49:36.749Z,0
2016-11-30T08:50:47.267Z,0
2016-11-30T08:51:57.791Z,0
2016-11-30T08:53:08.318Z,0
2016-11-30T08:54:19.339Z,0
2016-11-30T08:55:30.063Z,0
2016-11-30T08:56:40.496Z,0
2016-11-30T08:57:50.907Z,0
2016-11-30T08:59:01.307Z,5
2016-11-30T09:00:11.709Z,0
2016-11-30T09:01:22.798Z,0
2016-11-30T09:02:33.202Z,0
2016-11-30T09:03:43.605Z,0
2016-11-30T09:04:54.009Z,0
2016-11-30T09:06:04.412Z,5
2016-11-30T09:07:14.828Z,5
2016-11-30T09:08:25.233Z,5
2016-11-30T09:11:15.150Z,5
2016-11-30T09:12:25.754Z,5
2016-11-30T09:13:36.166Z,5
2016-11-30T09:14:46.572Z,5
2016-11-30T09:15:56.976Z,5
2016-11-30T09:17:07.380Z,5
2016-11-30T09:18:17.982Z,5
2016-11-30T09:19:28.388Z,5
2016-11-30T09:20:38.798Z,5
2016-11-30T09:21:49.209Z,5
2016-11-30T09:22:59.650Z,5
2016-11-30T09:24:10.260Z,5
2016-11-30T09:25:20.697Z,5
2016-11-30T09:26:31.106Z,5
2016-11-30T09:27:41.568Z,5
2016-11-30T09:28:52.091Z,5
2016-11-30T09:30:02.665Z,5
2016-11-30T09:31:27.711Z,5
2016-11-30T09:32:38.265Z,5
2016-11-30T09:33:48.787Z,10
2016-11-30T09:34:59.309Z,10
2016-11-30T09:36:09.861Z,10
2016-11-30T09:37:20.381Z,10
2016-11-30T09:38:30.914Z,10
2016-11-30T09:39:41.437Z,10
2016-11-30T09:42:17.206Z,10
2016-11-30T09:43:27.765Z,10
2016-11-30T09:44:52.811Z,10
2016-11-30T09:46:03.539Z,10
2016-11-30T09:47:14.063Z,10
2016-11-30T09:48:24.588Z,10
2016-11-30T09:49:35.124Z,10
2016-11-30T09:50:45.648Z,10
2016-11-30T09:51:56.369Z,10
2016-11-30T09:53:06.926Z,10
2016-11-30T09:54:17.446Z,10
2016-11-30T09:55:27.968Z,10
2016-11-30T09:56:38.490Z,10
2016-11-30T09:57:49.013Z,10
2016-11-30T09:58:59.541Z,10
2016-11-30T10:00:10.097Z,10
2016-11-30T10:01:20.628Z,10
2016-11-30T10:02:31.160Z,10
2016-11-30T10:03:42.190Z,10
2016-11-30T10:04:52.715Z,15
2016-11-30T10:06:03.239Z,15
2016-11-30T10:07:13.762Z,15
2016-11-30T10:08:24.282Z,10
2016-11-30T10:09:34.806Z,10
2016-11-30T10:10:45.330Z,10
2016-11-30T10:11:55.850Z,10
2016-11-30T10:13:06.371Z,10
2016-11-30T10:14:16.900Z,10
2016-11-30T10:15:42.150Z,10
2016-11-30T10:16:52.678Z,10
2016-11-30T10:18:03.207Z,10
2016-11-30T10:19:13.734Z,10
2016-11-30T10:20:24.257Z,10
2016-11-30T10:21:34.778Z,10
2016-11-30T10:22:45.298Z,5
2016-11-30T10:23:55.820Z,10
2016-11-30T10:25:06.353Z,5
2016-11-30T10:26:17.079Z,5
2016-11-30T10:27:27.605Z,5
2016-11-30T10:28:38.128Z,5
2016-11-30T10:29:48.649Z,5
2016-11-30T10:30:59.168Z,5
2016-11-30T10:32:09.893Z,5
2016-11-30T10:34:59.990Z,5
2016-11-30T10:36:10.519Z,5
2016-11-30T10:38:46.132Z,5
2016-11-30T10:39:56.657Z,10
2016-11-30T10:41:07.184Z,10
2016-11-30T10:42:17.806Z,10
2016-11-30T10:43:28.333Z,10
2016-11-30T10:44:38.855Z,10
2016-11-30T10:46:03.904Z,10
2016-11-30T10:47:14.944Z,10
2016-11-30T10:48:25.465Z,10
2016-11-30T10:49:35.994Z,10
2016-11-30T10:50:46.528Z,10
2016-11-30T10:51:57.052Z,10
2016-11-30T10:53:07.575Z,10
2016-11-30T10:54:18.135Z,10
2016-11-30T10:55:28.658Z,10
2016-11-30T10:56:39.178Z,10
2016-11-30T10:57:49.712Z,10
2016-11-30T10:59:00.231Z,10
2016-11-30T11:00:10.762Z,10
2016-11-30T11:01:21.287Z,15
2016-11-30T11:02:31.812Z,15
2016-11-30T11:03:42.335Z,15
2016-11-30T11:04:52.857Z,15
2016-11-30T11:06:03.377Z,15
2016-11-30T11:07:13.905Z,20
2016-11-30T11:08:38.953Z,25
2016-11-30T11:09:49.375Z,25
2016-11-30T11:10:59.780Z,25
2016-11-30T11:12:10.187Z,25
2016-11-30T11:13:35.140Z,25
2016-11-30T11:14:45.546Z,25
2016-11-30T11:15:56.438Z,30
2016-11-30T11:17:06.847Z,30
2016-11-30T11:18:17.256Z,30
2016-11-30T11:19:42.208Z,30
2016-11-30T11:20:52.614Z,30
2016-11-30T11:22:03.024Z,35
2016-11-30T11:23:13.454Z,35
2016-11-30T11:24:23.880Z,30
2016-11-30T11:25:48.829Z,35
2016-11-30T11:26:59.235Z,35
2016-11-30T11:28:09.636Z,35
2016-11-30T11:29:20.039Z,30
2016-11-30T11:30:30.440Z,25
2016-11-30T11:31:40.841Z,25
2016-11-30T11:32:51.247Z,25
2016-11-30T11:34:01.650Z,25
2016-11-30T11:35:12.057Z,25
2016-11-30T11:36:22.459Z,25
2016-11-30T11:37:47.614Z,30
2016-11-30T11:38:58.019Z,25
2016-11-30T11:40:08.422Z,20
2016-11-30T11:41:33.374Z,25
2016-11-30T11:42:44.128Z,20
2016-11-30T11:43:54.531Z,15
2016-11-30T11:45:04.940Z,10
2016-11-30T11:46:15.345Z,15
2016-11-30T11:47:40.300Z,20
2016-11-30T11:49:05.253Z,15
2016-11-30T11:50:15.659Z,20
2016-11-30T11:51:26.060Z,20
2016-11-30T11:52:36.460Z,25
2016-11-30T11:53:46.875Z,25
2016-11-30T11:55:11.826Z,25
2016-11-30T11:56:22.228Z,40
2016-11-30T11:57:32.632Z,45
2016-11-30T11:58:43.136Z,45
2016-11-30T11:59:53.541Z,45
2016-11-30T12:01:03.942Z,45
2016-11-30T12:02:14.345Z,50
2016-11-30T12:03:39.299Z,50
2016-11-30T12:04:49.705Z,40
2016-11-30T12:06:00.112Z,35
2016-11-30T12:07:10.535Z,35
2016-11-30T12:08:35.491Z,30
2016-11-30T12:09:45.895Z,20
2016-11-30T12:10:56.302Z,20
2016-11-30T12:12:06.709Z,25
2016-11-30T12:13:17.116Z,20
2016-11-30T12:14:43.218Z,20
2016-11-30T12:16:10.677Z,20
2016-11-30T12:17:22.005Z,20
2016-11-30T12:18:32.535Z,15
2016-11-30T12:21:40.895Z,20
2016-11-30T12:23:06.492Z,20
2016-11-30T12:24:17.026Z,25
2016-11-30T12:25:42.130Z,25
2016-11-30T12:27:07.187Z,25
2016-11-30T12:28:18.936Z,25
2016-11-30T12:29:58.514Z,25
2016-11-30T12:31:09.760Z,25
2016-11-30T12:32:21.294Z,25
2016-11-30T12:33:46.357Z,25
2016-11-30T12:35:11.907Z,20
2016-11-30T12:36:23.529Z,20
2016-11-30T12:37:34.793Z,20
2016-11-30T12:38:45.323Z,20
2016-11-30T12:39:55.845Z,20
2016-11-30T12:41:06.366Z,20
2016-11-30T12:42:17.386Z,20
2016-11-30T12:43:27.905Z,20
2016-11-30T12:44:38.427Z,20
2016-11-30T12:45:48.980Z,20
2016-11-30T12:46:59.503Z,20
2016-11-30T12:48:10.527Z,20
2016-11-30T12:49:21.085Z,15
2016-11-30T12:50:46.630Z,20
2016-11-30T12:52:11.684Z,20
2016-11-30T12:53:22.409Z,20
2016-11-30T12:54:32.930Z,20
2016-11-30T12:55:43.486Z,20
2016-11-30T12:56:54.016Z,25
2016-11-30T12:58:04.541Z,25
2016-11-30T12:59:15.069Z,25
2016-11-30T13:00:25.589Z,25
2016-11-30T13:01:36.117Z,25
2016-11-30T13:02:46.642Z,25
2016-11-30T13:03:57.164Z,25
2016-11-30T13:05:07.684Z,25
2016-11-30T13:06:32.732Z,25
2016-11-30T13:07:43.257Z,25
2016-11-30T13:08:53.787Z,25
2016-11-30T13:10:04.313Z,25
2016-11-30T13:11:15.335Z,25
2016-11-30T13:12:25.858Z,25
2016-11-30T13:13:36.380Z,25
2016-11-30T13:14:46.903Z,25
2016-11-30T13:15:57.425Z,25
2016-11-30T13:17:07.953Z,25
2016-11-30T13:20:12.579Z,30
2016-11-30T13:21:23.308Z,25
2016-11-30T13:22:33.832Z,25
2016-11-30T13:23:44.343Z,30
2016-11-30T13:25:09.296Z,25
2016-11-30T13:26:19.705Z,25
2016-11-30T13:27:30.108Z,25
2016-11-30T13:30:05.460Z,25
2016-11-30T13:31:16.063Z,25
2016-11-30T13:32:26.468Z,25
2016-11-30T13:33:37.477Z,20
2016-11-30T13:35:02.527Z,25
2016-11-30T13:36:13.054Z,25
2016-11-30T13:37:23.779Z,15
2016-11-30T13:40:13.881Z,15
2016-11-30T13:41:24.403Z,25
2016-11-30T13:42:34.925Z,25
2016-11-30T13:43:45.452Z,25
2016-11-30T13:44:55.971Z,25
2016-11-30T13:46:06.494Z,25
2016-11-30T13:47:17.042Z,25
2016-11-30T13:48:42.600Z,30
2016-11-30T13:49:53.189Z,30
2016-11-30T13:52:28.811Z,25
2016-11-30T13:53:39.339Z,30
2016-11-30T13:54:49.859Z,45
2016-11-30T13:56:00.384Z,65
2016-11-30T13:57:10.912Z,60
2016-11-30T13:58:21.931Z,50
2016-11-30T13:59:32.451Z,45
2016-11-30T14:00:57.502Z,40
2016-11-30T14:02:08.067Z,40
2016-11-30T14:03:18.592Z,40
2016-11-30T14:04:29.312Z,45
2016-11-30T14:05:39.834Z,40
2016-11-30T14:06:50.360Z,35
2016-11-30T14:08:00.883Z,40
2016-11-30T14:09:11.413Z,30
2016-11-30T14:10:22.137Z,30
2016-11-30T14:11:32.660Z,35
2016-11-30T14:12:57.714Z,30
2016-11-30T14:14:08.235Z,25
2016-11-30T14:15:33.287Z,25
2016-11-30T14:16:43.815Z,25
2016-11-30T14:17:54.365Z,25
2016-11-30T14:19:19.414Z,30
2016-11-30T14:20:29.938Z,25
2016-11-30T14:21:40.461Z,30
2016-11-30T14:22:50.994Z,25
2016-11-30T14:24:01.518Z,25
2016-11-30T14:25:12.054Z,35
2016-11-30T14:26:22.575Z,30
2016-11-30T14:27:47.627Z,30
2016-11-30T14:28:58.151Z,25
2016-11-30T14:30:08.678Z,25
2016-11-30T14:31:19.404Z,25
2016-11-30T14:32:29.928Z,30
2016-11-30T14:35:05.565Z,30
2016-11-30T14:36:16.611Z,35
2016-11-30T14:37:27.140Z,25
2016-11-30T14:38:37.661Z,25
2016-11-30T14:39:48.182Z,25
2016-11-30T14:41:13.227Z,25
2016-11-30T14:42:23.759Z,25
2016-11-30T14:43:34.284Z,25
2016-11-30T14:44:44.807Z,25
2016-11-30T14:45:55.825Z,25
2016-11-30T14:47:06.849Z,25
2016-11-30T14:48:17.580Z,25
2016-11-30T14:49:28.105Z,25
2016-11-30T14:50:38.628Z,20
2016-11-30T14:51:49.147Z,15
2016-11-30T14:53:14.195Z,15
2016-11-30T14:54:24.717Z,10
2016-11-30T14:55:35.739Z,10
2016-11-30T14:56:46.270Z,15
2016-11-30T14:57:56.792Z,20
2016-11-30T14:59:07.316Z,15
2016-11-30T15:00:17.845Z,15
2016-11-30T15:01:28.366Z,15
2016-11-30T15:02:38.885Z,20
2016-11-30T15:03:49.406Z,20
2016-11-30T15:04:59.927Z,20
2016-11-30T15:06:10.447Z,20
2016-11-30T15:07:20.965Z,20
2016-11-30T15:08:31.483Z,20
2016-11-30T15:09:42.014Z,25
2016-11-30T15:10:52.635Z,25
2016-11-30T15:12:03.157Z,25
2016-11-30T15:13:13.686Z,25
2016-11-30T15:14:24.204Z,25
2016-11-30T15:16:59.975Z,25
2016-11-30T15:18:10.497Z,25
2016-11-30T15:20:46.078Z,25
2016-11-30T15:21:57.095Z,25
2016-11-30T15:23:07.616Z,25
2016-11-30T15:24:18.134Z,30
2016-11-30T15:25:28.658Z,35
2016-11-30T15:26:39.175Z,30
2016-11-30T15:27:49.896Z,30
2016-11-30T15:29:00.932Z,30
2016-11-30T15:30:11.458Z,30
2016-11-30T15:31:21.980Z,25
2016-11-30T15:32:47.035Z,25
2016-11-30T15:33:57.554Z,25
2016-11-30T15:35:08.097Z,25
2016-11-30T15:36:18.642Z,25
2016-11-30T15:37:29.164Z,30
2016-11-30T15:38:39.685Z,30
2016-11-30T15:39:50.705Z,35
2016-11-30T15:41:01.250Z,35
2016-11-30T15:42:12.275Z,45
2016-11-30T15:43:22.797Z,45
2016-11-30T15:44:33.356Z,45
2016-11-30T15:45:43.881Z,40
2016-11-30T15:46:54.403Z,45
2016-11-30T15:48:04.926Z,35
2016-11-30T15:49:15.951Z,40
2016-11-30T15:50:26.673Z,35
2016-11-30T15:51:37.191Z,45
2016-11-30T15:52:47.716Z,45
2016-11-30T15:53:58.237Z,45
2016-11-30T15:55:08.756Z,45
2016-11-30T15:56:33.801Z,60
2016-11-30T15:57:44.321Z,65
2016-11-30T15:58:54.854Z,65
2016-11-30T16:00:05.426Z,55
2016-11-30T16:01:16.150Z,65
2016-11-30T16:02:26.676Z,65
2016-11-30T16:05:02.252Z,55
2016-11-30T16:06:12.976Z,40
2016-11-30T16:07:23.504Z,40
2016-11-30T16:08:34.021Z,35
2016-11-30T16:09:44.542Z,25
2016-11-30T16:10:55.063Z,25
2016-11-30T16:12:05.813Z,25
2016-11-30T16:13:16.337Z,25
2016-11-30T16:14:26.865Z,25
2016-11-30T16:15:54.171Z,25
2016-11-30T16:17:05.392Z,25
2016-11-30T16:18:15.916Z,30
2016-11-30T16:19:26.443Z,30
2016-11-30T16:20:36.961Z,25
2016-11-30T16:21:47.490Z,25
2016-11-30T16:22:58.013Z,20
2016-11-30T16:24:08.545Z,20
2016-11-30T16:25:19.096Z,25
2016-11-30T16:26:29.622Z,25
2016-11-30T16:27:40.150Z,25
2016-11-30T16:28:50.774Z,25
2016-11-30T16:30:01.295Z,20
2016-11-30T16:31:11.856Z,25
2016-11-30T16:32:22.381Z,45
2016-11-30T16:33:32.902Z,45
2016-11-30T16:34:43.623Z,50
2016-11-30T16:35:54.140Z,40
2016-11-30T16:37:04.663Z,45
2016-11-30T16:38:15.189Z,45
2016-11-30T16:40:50.971Z,60
2016-11-30T16:42:01.522Z,60
2016-11-30T16:43:12.046Z,50
2016-11-30T16:44:22.570Z,30
2016-11-30T16:45:33.099Z,20
2016-11-30T16:46:43.822Z,20
2016-11-30T16:47:54.369Z,15
2016-11-30T16:49:04.888Z,15
2016-11-30T16:50:15.408Z,15
2016-11-30T16:51:25.935Z,15
2016-11-30T16:52:50.984Z,20
2016-11-30T16:54:01.513Z,25
2016-11-30T16:56:37.084Z,30
2016-11-30T16:58:02.142Z,35
2016-11-30T16:59:27.198Z,35
2016-11-30T17:00:38.222Z,30
2016-11-30T17:01:48.745Z,45
2016-11-30T17:02:59.265Z,50
2016-11-30T17:04:09.789Z,50
2016-11-30T17:05:20.310Z,45
2016-11-30T17:06:31.027Z,45
2016-11-30T17:07:41.553Z,60
2016-11-30T17:08:52.273Z,70
2016-11-30T17:10:02.800Z,80
2016-11-30T17:11:13.328Z,55
2016-11-30T17:12:23.849Z,45
2016-11-30T17:13:34.385Z,40
2016-11-30T17:14:45.603Z,35
2016-11-30T17:15:56.124Z,25
2016-11-30T17:17:06.653Z,25
2016-11-30T17:18:17.177Z,30
2016-11-30T17:19:27.697Z,45
2016-11-30T17:20:38.732Z,45
2016-11-30T17:22:03.702Z,40
2016-11-30T17:23:14.106Z,45
2016-11-30T17:24:24.515Z,60
2016-11-30T17:25:35.612Z,55
2016-11-30T17:26:46.046Z,60
2016-11-30T17:27:56.450Z,55
2016-11-30T17:29:06.856Z,60
2016-11-30T17:30:17.262Z,65
2016-11-30T17:31:27.672Z,75
2016-11-30T17:32:38.083Z,65
2016-11-30T17:33:48.489Z,70
2016-11-30T17:34:58.897Z,60
2016-11-30T17:36:09.302Z,45
2016-11-30T17:38:44.773Z,40
2016-11-30T17:39:55.085Z,40
2016-11-30T17:41:05.402Z,40
2016-11-30T17:42:30.283Z,40
2016-11-30T17:43:40.599Z,40
2016-11-30T17:44:51.495Z,30
2016-11-30T17:46:01.925Z,25
2016-11-30T17:47:12.745Z,20
2016-11-30T17:48:23.177Z,20
2016-11-30T17:49:33.644Z,20
2016-11-30T17:50:44.079Z,15
2016-11-30T17:51:54.533Z,15
2016-11-30T17:53:04.967Z,15